Airfield :
LOGIN :

Register | Disclaimer

   EN    FR    IT 

 










Legend :    VFR   Marginal VFR   IFR   Intensive IFR   Very Intensive IFR
Visi :
Ceiling :
>= 8 km
>= 3000ft
5 to 8 km
1000 to 3000 ft
1500m to 5 km
500 to 1000 ft
800 to 1500m
200 to 500 ft
< 800m
< 200 ft
Symbols :   Thunderstorms  Fog  Heavy snow  Heavy precipitations  Wind > 20 kt
SIGMETs :     Misc.  Thunderstorms  Icing  Turbulence  Mountain Waves  Volcanic Ashes






- Airport Elevation : 123 ft
- IATA code : BLQ


LIPE - Bologna Guglielmo Marconi

CURRENT METAR :
  • 291050Z VRB02KT 9999 FEW070 20/14 Q0998

EXPIRED METARs :
  • 291020Z VRB02KT 9999 FEW070 20/14 Q0999
  • 290950Z 33003KT 300V360 9999 FEW070 19/15 Q0999
  • 290920Z VRB01KT 8000 FEW070 18/14 Q0999
  • 290850Z 34003KT 300V020 8000 FEW060 17/14 Q0999
  • 290820Z VRB01KT 8000 FEW070 17/14 Q0998

TAF TAF LIPE
Valid from the 29 at 06:00 until the 30 at 06:00 UTC


290500Z 2906/3006 VRB05KT 9000 FEW010
BECMG 2909/2911 21012KT
BECMG 2916/2918 15008KT
TEMPO 2919/3002 RA



MET'MAP, your aeronautical weather chart ! - Copyright ORBIFLY December 2007 - Disclaimer

ORBIFLY MET'MAP TEAM :

Programming & Development : Alexandra Zaïnal
Original concept : Baudouin d'Aumeries
Technical & hardware support : Manuel Goepfert
Assistance : Marc-Olivier Méhu




SOURCES & CREDITS :

   NOAA